Dieringer, Washington
Current Conditions -  °F | °C
As of 11:58 AM on Thursday 18 Dec 2014 (Local Time) from KTCM Reporting Station
Overcast Overcast  
Wind Chill: 45°   Ceiling: 6000
Heat Index: 47°   Visibility: 10mi
Dew Point: 47°   Wind: 5mph
Humidity: 100%   Direction: 120°ESE
Pressure: 29.86"   Gusts: NA
Location:  47.2018°N, 122.233°W
Report Text: KTCM 181958Z AUTO 12004KT 10SM FEW046 BKN060 OVC075 08/08 A2986 RMK AO2 RAE44 SLP117 P0003 T00830083 $
Loading
Personal Weather Stations






























Interactive Weather Map New forecast layout! Learn more

10-Day Weather Forecast

Advertisements
Track Severe Weather on mobile